Time;durP1;ratioP1;P1;durP2;ratioP2;P2;SDS_P1;SDS_P2;PMS_P1;PMS_P2;Temp;Humidity;BMP_temperature;BMP_pressure;BME280_temperature;BME280_humidity;BME280_pressure;Samples;Min_cycle;Max_cycle;Signal;HPM_P1;HPM_P2
2022/06/11 00:01:38;;;;;;;4.68;4.22;;;14.60;99.90;;;;;;7250631;19;2004326;-79
2022/06/11 00:04:07;;;;;;;6.97;5.20;;;14.60;99.90;;;;;;7356599;19;20374;-78
2022/06/11 00:06:34;;;;;;;5.50;4.90;;;14.60;99.90;;;;;;7355577;19;20313;-77
2022/06/11 00:09:00;;;;;;;6.72;4.90;;;14.60;99.90;;;;;;7357796;19;20324;-78
2022/06/11 00:11:25;;;;;;;5.38;4.40;;;14.60;99.90;;;;;;7356805;19;20358;-77
2022/06/11 00:13:52;;;;;;;4.93;4.00;;;14.50;99.90;;;;;;7364029;19;20712;-78
2022/06/11 00:16:20;;;;;;;7.32;5.40;;;14.30;99.90;;;;;;7355454;19;20345;-80
2022/06/11 00:18:47;;;;;;;5.72;4.70;;;14.20;99.90;;;;;;7359648;19;20364;-77
2022/06/11 00:21:16;;;;;;;3.75;3.40;;;14.20;99.90;;;;;;7359463;19;20729;-76
2022/06/11 00:23:46;;;;;;;4.18;3.78;;;14.10;99.90;;;;;;7359522;19;20352;-76
2022/06/11 00:26:17;;;;;;;2.93;2.73;;;14.10;99.90;;;;;;7304667;19;20391;-77
2022/06/11 00:28:47;;;;;;;2.67;2.47;;;14.10;99.90;;;;;;7326798;19;20341;-76
2022/06/11 00:31:14;;;;;;;4.07;3.78;;;14.10;99.90;;;;;;7349394;19;20376;-79
2022/06/11 00:33:42;;;;;;;3.88;3.55;;;14.10;99.90;;;;;;7362433;19;20352;-76
2022/06/11 00:36:09;;;;;;;3.50;3.20;;;14.10;99.90;;;;;;7358352;19;20389;-77
2022/06/11 00:38:40;;;;;;;5.93;4.10;;;14.00;99.90;;;;;;7330699;19;20379;-76
2022/06/11 00:41:08;;;;;;;3.72;3.42;;;14.00;99.90;;;;;;7350902;19;20368;-78
2022/06/11 00:43:37;;;;;;;2.88;2.67;;;14.00;99.90;;;;;;7350139;19;20312;-78
2022/06/11 00:46:38;;;;;;;3.00;2.80;;;14.00;99.90;;;;;;7349045;19;20324;-77
2022/06/11 00:49:35;;;;;;;4.45;3.47;;;13.90;99.90;;;;;;7254579;19;2004385;-77
2022/06/11 00:52:20;;;;;;;3.28;2.97;;;13.90;99.90;;;;;;7344237;19;20362;-76
2022/06/11 00:55:10;;;;;;;2.92;2.60;;;13.80;99.90;;;;;;7244323;19;2004223;-77
2022/06/11 00:57:42;;;;;;;2.72;2.53;;;13.80;99.90;;;;;;7248611;19;2004514;-77
2022/06/11 01:00:16;;;;;;;2.88;2.67;;;13.80;99.90;;;;;;7342986;19;20362;-76
2022/06/11 01:02:46;;;;;;;2.97;2.77;;;13.80;99.90;;;;;;7346948;19;20345;-78
2022/06/11 01:05:24;;;;;;;2.65;2.45;;;13.80;99.90;;;;;;7347494;19;20329;-76
2022/06/11 01:08:38;;;;;;;3.00;2.45;;;13.80;99.90;;;;;;7350456;19;20344;-77
2022/06/11 01:11:20;;;;;;;3.65;2.63;;;13.80;99.90;;;;;;7135387;19;2004639;-77
2022/06/11 01:14:11;;;;;;;2.55;2.35;;;13.80;99.90;;;;;;7350132;19;20341;-78
2022/06/11 01:17:03;;;;;;;2.60;2.40;;;13.70;99.90;;;;;;7254111;19;2004378;-78
2022/06/11 01:19:57;;;;;;;3.35;2.53;;;13.70;99.90;;;;;;7362001;19;20403;-77
2022/06/11 01:22:42;;;;;;;2.80;2.60;;;13.60;99.90;;;;;;7250999;19;2004347;-77
2022/06/11 01:25:36;;;;;;;3.67;3.10;;;13.50;99.90;;;;;;7252387;19;2004708;-77
2022/06/11 01:28:05;;;;;;;3.03;2.83;;;13.40;99.90;;;;;;7356273;19;20365;-77
2022/06/11 01:30:43;;;;;;;3.20;2.80;;;13.30;99.90;;;;;;7354609;19;20361;-78
2022/06/11 01:33:31;;;;;;;3.30;3.00;;;13.20;99.90;;;;;;7264115;19;2004470;-79
2022/06/11 01:36:29;;;;;;;2.70;2.50;;;13.20;99.90;;;;;;7349024;19;20317;-76
2022/06/11 01:39:19;;;;;;;3.22;2.92;;;13.10;99.90;;;;;;7254418;19;2004295;-78
2022/06/11 01:41:59;;;;;;;2.80;2.60;;;13.10;99.90;;;;;;7254900;19;2004381;-76
2022/06/11 01:44:34;;;;;;;3.50;3.20;;;13.10;99.90;;;;;;7349179;19;20715;-77
2022/06/11 01:47:03;;;;;;;3.72;3.40;;;13.10;99.90;;;;;;7355152;19;20317;-77
2022/06/11 01:49:29;;;;;;;3.85;3.10;;;13.00;99.90;;;;;;7365121;19;20312;-78
2022/06/11 01:52:33;;;;;;;3.47;3.20;;;12.90;99.90;;;;;;7359554;19;20348;-77
2022/06/11 01:55:08;;;;;;;3.30;3.10;;;12.80;99.90;;;;;;7256497;19;2004130;-76
2022/06/11 01:57:43;;;;;;;2.92;2.72;;;12.80;99.90;;;;;;7355476;19;20678;-78
2022/06/11 02:00:21;;;;;;;3.50;3.20;;;12.80;99.90;;;;;;7254246;19;2004523;-78
2022/06/11 02:03:12;;;;;;;3.00;2.80;;;12.80;99.90;;;;;;7347179;19;20348;-77
2022/06/11 02:05:58;;;;;;;3.47;2.80;;;12.70;99.90;;;;;;7219359;19;2004667;-76
2022/06/11 02:08:45;;;;;;;3.20;2.90;;;12.70;99.90;;;;;;7340831;19;20639;-76
2022/06/11 02:11:35;;;;;;;3.20;2.90;;;12.70;99.90;;;;;;7257574;19;2004404;-79
2022/06/11 02:14:14;;;;;;;3.78;3.38;;;12.70;99.90;;;;;;7352338;19;21224;-79
2022/06/11 02:16:47;;;;;;;3.67;3.08;;;12.70;99.90;;;;;;7254985;19;2004519;-78
2022/06/11 02:19:16;;;;;;;3.20;2.90;;;12.60;99.90;;;;;;7355895;19;21116;-79
2022/06/11 02:21:53;;;;;;;2.60;2.40;;;12.60;99.90;;;;;;7356340;19;20355;-77
2022/06/11 02:24:27;;;;;;;3.50;3.20;;;12.40;99.90;;;;;;7355017;19;20409;-80
2022/06/11 02:26:55;;;;;;;4.22;3.35;;;12.30;99.90;;;;;;7352881;19;20336;-79
2022/06/11 02:29:23;;;;;;;3.83;3.53;;;12.30;99.90;;;;;;7365125;19;20346;-80
2022/06/11 02:31:56;;;;;;;3.65;3.35;;;12.30;99.90;;;;;;7355005;19;20388;-78
2022/06/11 02:34:25;;;;;;;3.42;3.13;;;12.30;99.90;;;;;;7360268;19;20343;-77
2022/06/11 02:37:02;;;;;;;3.20;2.90;;;12.30;99.90;;;;;;7357777;19;20355;-78
2022/06/11 02:39:31;;;;;;;3.70;3.40;;;12.30;99.90;;;;;;7359063;19;20308;-77
2022/06/11 02:41:57;;;;;;;3.60;3.30;;;12.30;99.90;;;;;;7356459;19;20321;-79
2022/06/11 02:44:24;;;;;;;3.42;3.17;;;12.30;99.90;;;;;;7348672;19;20390;-77
2022/06/11 02:46:52;;;;;;;4.43;3.70;;;12.30;99.90;;;;;;7339221;19;20348;-78
2022/06/11 02:49:23;;;;;;;3.97;3.20;;;12.30;99.90;;;;;;7358405;19;20664;-79
2022/06/11 02:51:50;;;;;;;4.60;3.13;;;12.30;99.90;;;;;;7353035;19;21265;-77
2022/06/11 02:54:17;;;;;;;3.00;2.80;;;12.30;99.90;;;;;;7350418;19;20351;-79
2022/06/11 02:56:44;;;;;;;4.18;3.88;;;12.30;99.90;;;;;;7327816;19;20967;-77
2022/06/11 02:59:12;;;;;;;3.90;3.60;;;12.30;99.90;;;;;;7365216;19;20344;-77
2022/06/11 03:01:39;;;;;;;3.20;3.00;;;12.50;99.90;;;;;;7353106;19;20340;-78
2022/06/11 03:04:06;;;;;;;3.83;3.43;;;12.40;99.90;;;;;;7354362;19;20345;-77
2022/06/11 03:06:32;;;;;;;4.13;3.72;;;12.40;99.90;;;;;;7355632;19;20336;-78
2022/06/11 03:08:59;;;;;;;2.75;2.55;;;12.50;99.90;;;;;;7352547;19;20324;-77
2022/06/11 03:11:27;;;;;;;3.53;3.22;;;12.50;99.90;;;;;;7336690;19;20756;-77
2022/06/11 03:13:53;;;;;;;3.78;3.47;;;12.50;99.90;;;;;;7353464;19;20348;-77
2022/06/11 03:16:20;;;;;;;2.80;2.60;;;12.50;99.90;;;;;;7346696;19;20437;-79
2022/06/11 03:18:47;;;;;;;4.15;2.67;;;12.50;99.90;;;;;;7348389;19;20349;-77
2022/06/11 03:21:17;;;;;;;2.90;2.63;;;12.60;99.90;;;;;;7330163;19;20341;-77
2022/06/11 03:23:53;;;;;;;3.67;3.20;;;12.60;99.90;;;;;;7329986;19;20352;-78
2022/06/11 03:26:24;;;;;;;3.22;2.95;;;12.60;99.90;;;;;;7346967;19;20649;-77
2022/06/11 03:28:51;;;;;;;3.43;3.13;;;12.60;99.90;;;;;;7376309;19;20367;-77
2022/06/11 03:34:46;;;;;;;2.70;2.50;;;12.60;99.90;;;;;;7385016;19;20339;-79
2022/06/11 03:37:12;;;;;;;2.83;2.63;;;12.60;99.90;;;;;;7372298;19;20334;-80
2022/06/11 03:39:38;;;;;;;2.97;2.78;;;12.60;99.90;;;;;;7357774;19;20689;-79
2022/06/11 03:42:04;;;;;;;3.00;2.80;;;12.70;99.90;;;;;;7373746;19;22032;-80
2022/06/11 03:44:30;;;;;;;3.55;3.25;;;12.70;99.90;;;;;;7375984;19;20968;-79
2022/06/11 03:46:56;;;;;;;3.10;2.90;;;12.70;99.90;;;;;;7376566;19;20334;-79
2022/06/11 03:49:22;;;;;;;3.58;3.20;;;12.80;99.90;;;;;;7379821;19;20440;-80
2022/06/11 03:51:47;;;;;;;3.47;3.20;;;12.90;99.90;;;;;;7378547;19;20432;-79
2022/06/11 03:54:13;;;;;;;4.30;4.00;;;12.80;99.90;;;;;;7375046;19;20356;-79
2022/06/11 03:56:39;;;;;;;5.03;4.03;;;12.80;99.90;;;;;;7372131;19;20333;-80
2022/06/11 03:59:05;;;;;;;3.80;3.50;;;12.80;99.90;;;;;;7376777;19;20328;-79
2022/06/11 04:01:31;;;;;;;4.53;3.67;;;12.90;99.90;;;;;;7375904;19;20308;-79
2022/06/11 04:04:03;;;;;;;3.40;3.10;;;12.90;99.90;;;;;;7376969;19;20371;-80
2022/06/11 04:06:38;;;;;;;3.60;3.30;;;13.00;99.90;;;;;;7372314;19;20332;-80
2022/06/11 04:09:06;;;;;;;5.15;3.80;;;13.10;99.90;;;;;;7374923;19;20320;-79
2022/06/11 04:11:32;;;;;;;4.23;3.90;;;13.10;99.90;;;;;;7376075;19;20320;-79
2022/06/11 04:13:57;;;;;;;4.35;3.95;;;13.20;99.90;;;;;;7375818;19;20313;-80
2022/06/11 04:16:25;;;;;;;3.07;2.87;;;13.30;99.90;;;;;;7376253;19;20337;-79
2022/06/11 04:18:51;;;;;;;4.57;4.18;;;13.40;99.90;;;;;;7381418;19;20344;-80
2022/06/11 04:21:17;;;;;;;4.07;3.78;;;13.40;99.90;;;;;;7380446;19;20390;-79
2022/06/11 04:23:44;;;;;;;3.33;3.03;;;13.50;99.90;;;;;;7376144;19;20848;-79
2022/06/11 04:26:13;;;;;;;4.03;3.63;;;13.70;99.90;;;;;;7375482;19;20340;-79
2022/06/11 04:28:38;;;;;;;3.88;3.58;;;13.70;99.90;;;;;;7373995;19;20963;-79
2022/06/11 04:31:05;;;;;;;4.23;3.83;;;13.80;99.90;;;;;;7377010;19;20304;-80
2022/06/11 04:33:31;;;;;;;4.07;3.78;;;13.90;99.90;;;;;;7378222;19;20314;-79
2022/06/11 04:35:56;;;;;;;4.37;3.97;;;14.00;99.90;;;;;;7383848;19;20321;-80
2022/06/11 04:38:22;;;;;;;3.77;3.30;;;14.20;99.90;;;;;;7380168;19;20359;-78
2022/06/11 04:40:47;;;;;;;5.70;3.83;;;14.30;99.90;;;;;;7375278;19;20711;-80
2022/06/11 04:43:13;;;;;;;3.63;3.33;;;14.40;99.90;;;;;;7375633;19;20462;-80
2022/06/11 04:45:39;;;;;;;3.20;2.90;;;14.60;99.90;;;;;;7374455;19;20365;-79
2022/06/11 04:48:05;;;;;;;4.10;2.70;;;14.80;99.90;;;;;;7379676;19;20344;-80
2022/06/11 04:50:30;;;;;;;3.85;3.40;;;14.90;99.90;;;;;;7375445;19;20338;-78
2022/06/11 04:52:56;;;;;;;2.57;2.37;;;15.10;99.90;;;;;;7372171;19;20384;-79
2022/06/11 04:55:22;;;;;;;3.35;2.97;;;15.20;99.90;;;;;;7371992;19;20336;-80
2022/06/11 04:57:47;;;;;;;4.63;3.40;;;15.30;99.90;;;;;;7371471;19;21216;-79
2022/06/11 05:00:19;;;;;;;3.50;3.20;;;15.40;99.90;;;;;;7372844;19;20357;-79
2022/06/11 05:02:46;;;;;;;3.70;3.40;;;15.50;99.90;;;;;;7353963;19;20451;-79
2022/06/11 05:05:11;;;;;;;3.10;2.90;;;15.60;99.90;;;;;;7372030;19;20685;-79
2022/06/11 05:07:37;;;;;;;3.65;3.35;;;15.60;99.90;;;;;;7370069;19;20340;-79
2022/06/11 05:10:07;;;;;;;4.10;3.30;;;15.70;99.90;;;;;;7371820;19;20757;-80
2022/06/11 05:12:33;;;;;;;4.03;3.60;;;15.70;99.90;;;;;;7374315;19;20396;-80
2022/06/11 05:14:59;;;;;;;4.00;3.60;;;15.70;99.90;;;;;;7375028;19;20428;-79
2022/06/11 05:17:25;;;;;;;3.70;3.40;;;15.80;99.90;;;;;;7371447;19;20368;-79
2022/06/11 05:19:51;;;;;;;3.23;3.00;;;15.90;99.90;;;;;;7375138;19;20407;-80
2022/06/11 05:22:16;;;;;;;3.40;3.10;;;16.10;99.90;;;;;;7373134;19;21088;-79
2022/06/11 05:24:42;;;;;;;3.60;3.30;;;16.20;99.90;;;;;;7373257;19;20412;-79
2022/06/11 05:27:12;;;;;;;3.97;3.05;;;16.30;99.90;;;;;;7373487;19;20327;-81
2022/06/11 05:30:03;;;;;;;4.93;3.30;;;16.40;99.90;;;;;;7375495;19;20312;-80
2022/06/11 05:32:30;;;;;;;3.13;2.92;;;16.60;99.90;;;;;;7374128;19;20324;-80
2022/06/11 05:34:57;;;;;;;4.15;3.50;;;16.80;99.90;;;;;;7373931;19;20446;-80
2022/06/11 05:37:23;;;;;;;3.45;3.15;;;17.00;99.90;;;;;;7374775;19;20321;-80
2022/06/11 05:39:48;;;;;;;2.95;2.75;;;17.10;99.90;;;;;;7375283;19;20352;-80
2022/06/11 05:42:14;;;;;;;3.13;2.92;;;17.30;99.90;;;;;;7374615;19;20333;-80
2022/06/11 05:44:40;;;;;;;3.80;3.23;;;17.50;99.90;;;;;;7376484;19;20336;-80
2022/06/11 05:47:07;;;;;;;2.78;2.53;;;17.60;99.90;;;;;;7376208;19;20329;-80
2022/06/11 05:49:34;;;;;;;3.10;2.90;;;17.80;99.90;;;;;;7380020;19;20408;-80
2022/06/11 05:52:01;;;;;;;4.88;2.90;;;18.00;99.90;;;;;;7378173;19;20387;-79
2022/06/11 05:54:29;;;;;;;3.25;2.97;;;18.10;99.90;;;;;;7381823;19;20299;-80
2022/06/11 05:56:55;;;;;;;3.00;2.80;;;18.40;99.90;;;;;;7377908;19;20363;-81
2022/06/11 05:59:25;;;;;;;3.10;2.77;;;18.40;99.90;;;;;;7378133;19;20308;-80
2022/06/11 06:01:51;;;;;;;4.00;3.00;;;18.60;99.90;;;;;;7375253;19;20333;-79
2022/06/11 06:04:16;;;;;;;3.03;2.80;;;18.80;99.90;;;;;;7380064;19;20343;-78
2022/06/11 06:06:42;;;;;;;3.40;2.80;;;18.90;99.90;;;;;;7378137;19;20666;-79
2022/06/11 06:09:08;;;;;;;2.90;2.70;;;19.20;99.90;;;;;;7382175;19;20332;-79
2022/06/11 06:11:34;;;;;;;3.97;2.78;;;19.50;99.90;;;;;;7379915;19;20341;-79
2022/06/11 06:13:59;;;;;;;3.00;2.80;;;19.70;99.90;;;;;;7391402;19;20350;-79
2022/06/11 06:16:27;;;;;;;2.97;2.70;;;19.70;99.90;;;;;;7384625;19;20340;-79
2022/06/11 06:18:53;;;;;;;3.40;2.50;;;19.90;99.90;;;;;;7380406;19;21020;-79
2022/06/11 06:21:21;;;;;;;2.60;2.40;;;20.00;99.90;;;;;;7379258;19;20432;-78
2022/06/11 06:23:47;;;;;;;3.17;2.73;;;20.10;99.90;;;;;;7384745;19;20332;-79
2022/06/11 06:26:13;;;;;;;2.30;2.10;;;20.20;99.90;;;;;;7378379;19;20365;-80
2022/06/11 06:28:39;;;;;;;3.33;2.50;;;20.30;99.90;;;;;;7387449;19;20818;-79
2022/06/11 06:31:05;;;;;;;3.53;3.00;;;20.60;99.90;;;;;;7380858;19;20316;-79
2022/06/11 06:33:31;;;;;;;3.33;2.25;;;20.70;99.90;;;;;;7381141;19;20333;-78
2022/06/11 06:35:57;;;;;;;2.63;2.40;;;20.90;99.90;;;;;;7389889;19;20400;-79
2022/06/11 06:38:23;;;;;;;2.78;2.38;;;21.10;99.90;;;;;;7379363;19;21118;-78
2022/06/11 06:40:49;;;;;;;2.53;2.33;;;21.20;99.90;;;;;;7376941;19;20428;-78
2022/06/11 06:43:14;;;;;;;4.37;2.57;;;21.30;99.90;;;;;;7394144;19;20350;-79
2022/06/11 06:45:44;;;;;;;2.63;2.42;;;21.40;99.90;;;;;;7381220;19;20358;-80
2022/06/11 06:48:11;;;;;;;2.43;2.23;;;21.60;99.90;;;;;;7392350;19;20681;-79
2022/06/11 06:50:37;;;;;;;5.90;2.67;;;21.70;99.90;;;;;;7375137;19;20329;-80
2022/06/11 06:53:03;;;;;;;2.80;2.50;;;21.70;99.90;;;;;;7380034;19;20422;-80
2022/06/11 06:55:29;;;;;;;2.75;2.55;;;21.70;99.90;;;;;;7381357;19;20345;-80
2022/06/11 06:57:56;;;;;;;3.70;2.57;;;21.80;99.90;;;;;;7388928;19;20352;-79
2022/06/11 07:00:29;;;;;;;4.55;2.78;;;21.80;99.90;;;;;;7352856;19;20344;-82
2022/06/11 07:02:55;;;;;;;4.03;2.70;;;22.00;99.90;;;;;;7399133;19;20358;-80
2022/06/11 07:05:21;;;;;;;2.38;2.17;;;22.10;99.90;;;;;;7365871;19;20328;-81
2022/06/11 07:07:57;;;;;;;2.90;2.60;;;22.00;99.90;;;;;;7371070;19;20332;-80
2022/06/11 07:10:23;;;;;;;2.70;2.50;;;22.10;99.90;;;;;;7402104;19;20357;-79
2022/06/11 07:12:50;;;;;;;2.80;2.50;;;22.20;99.90;;;;;;7381887;19;20357;-81
2022/06/11 07:15:16;;;;;;;3.15;2.10;;;22.30;99.90;;;;;;7378878;19;20351;-78
2022/06/11 07:17:45;;;;;;;2.92;2.40;;;22.40;99.90;;;;;;7376310;19;20736;-77
2022/06/11 07:20:14;;;;;;;2.72;2.40;;;22.60;99.90;;;;;;7376142;19;20340;-77
2022/06/11 07:22:50;;;;;;;4.05;2.25;;;22.80;99.90;;;;;;7375181;19;21197;-77
2022/06/11 07:25:15;;;;;;;2.60;2.40;;;22.90;99.90;;;;;;7376881;19;20341;-77
2022/06/11 07:27:51;;;;;;;3.85;2.63;;;23.00;99.90;;;;;;7399310;19;20348;-79
2022/06/11 07:30:20;;;;;;;2.97;2.30;;;23.20;99.90;;;;;;7385937;19;20329;-80
2022/06/11 07:33:01;;;;;;;2.50;2.30;;;23.30;99.90;;;;;;7384246;19;20356;-80
2022/06/11 07:35:27;;;;;;;2.47;2.28;;;23.60;99.90;;;;;;7385858;19;21369;-79
2022/06/11 07:37:53;;;;;;;2.85;2.20;;;23.90;99.90;;;;;;7376946;19;20356;-75
2022/06/11 07:40:18;;;;;;;2.60;2.40;;;24.20;99.90;;;;;;7375092;19;20333;-78
2022/06/11 07:42:45;;;;;;;3.30;2.47;;;24.30;99.90;;;;;;7376423;19;20328;-77
2022/06/11 07:45:10;;;;;;;3.50;2.33;;;24.50;99.90;;;;;;7376346;19;20340;-78
2022/06/11 07:47:54;;;;;;;3.08;2.05;;;24.80;99.90;;;;;;7377544;19;20328;-77
2022/06/11 07:50:27;;;;;;;2.25;2.15;;;25.10;99.90;;;;;;7282892;19;2004377;-77
2022/06/11 07:52:53;;;;;;;2.60;2.40;;;24.90;99.90;;;;;;7381723;19;20336;-78
2022/06/11 07:55:18;;;;;;;2.83;2.33;;;24.80;99.90;;;;;;7377445;19;20348;-77
2022/06/11 07:57:44;;;;;;;2.30;2.10;;;24.80;99.90;;;;;;7378221;19;20352;-77
2022/06/11 08:00:12;;;;;;;2.50;2.30;;;25.10;99.90;;;;;;7374731;19;20339;-78
2022/06/11 08:02:38;;;;;;;2.33;2.15;;;25.50;99.90;;;;;;7374679;19;20376;-78
2022/06/11 08:05:05;;;;;;;2.17;2.00;;;25.70;99.90;;;;;;7375224;19;20916;-78
2022/06/11 08:07:30;;;;;;;4.40;2.13;;;25.80;99.90;;;;;;7374875;19;20313;-78
2022/06/11 08:09:57;;;;;;;2.55;2.20;;;25.90;99.90;;;;;;7378486;19;20341;-78
2022/06/11 08:12:24;;;;;;;2.10;2.00;;;26.10;99.90;;;;;;7374231;19;20356;-77
2022/06/11 08:14:50;;;;;;;2.25;2.05;;;26.30;99.90;;;;;;7374636;19;20341;-78
2022/06/11 08:17:15;;;;;;;2.85;2.00;;;26.20;99.90;;;;;;7374652;19;20332;-79
2022/06/11 08:19:41;;;;;;;2.00;1.60;;;26.20;99.90;;;;;;7376088;19;20347;-76
2022/06/11 08:22:06;;;;;;;2.40;1.80;;;26.20;99.90;;;;;;7372541;19;20404;-78
2022/06/11 08:24:32;;;;;;;1.87;1.60;;;26.30;97.20;;;;;;7375087;19;21188;-77
2022/06/11 08:26:58;;;;;;;2.22;1.70;;;26.60;99.20;;;;;;7371665;19;20379;-76
2022/06/11 08:29:23;;;;;;;1.80;1.70;;;27.00;97.80;;;;;;7375301;19;20337;-76
2022/06/11 08:31:49;;;;;;;3.50;2.20;;;26.80;97.20;;;;;;7371529;19;20412;-76
2022/06/11 08:34:14;;;;;;;1.90;1.50;;;27.20;97.00;;;;;;7374678;19;20344;-76
2022/06/11 08:36:40;;;;;;;2.57;1.67;;;27.40;94.70;;;;;;7372125;19;20379;-76
2022/06/11 08:39:06;;;;;;;1.60;1.50;;;27.10;96.20;;;;;;7374939;19;20421;-76
2022/06/11 08:41:37;;;;;;;1.50;1.40;;;27.00;94.70;;;;;;7371840;19;20313;-76
2022/06/11 08:44:08;;;;;;;4.60;1.70;;;27.30;95.60;;;;;;7373120;19;20321;-77
2022/06/11 08:46:36;;;;;;;1.60;1.50;;;27.80;95.20;;;;;;7371549;19;20313;-75
2022/06/11 08:49:05;;;;;;;1.42;1.35;;;28.10;92.20;;;;;;7372704;19;20348;-76
2022/06/11 08:51:44;;;;;;;2.57;1.67;;;27.10;91.40;;;;;;7371743;19;20301;-76
2022/06/11 08:54:15;;;;;;;2.50;1.40;;;26.90;92.70;;;;;;7271874;19;2004543;-76
2022/06/11 08:56:45;;;;;;;2.63;1.50;;;27.20;92.70;;;;;;7371830;19;20337;-76
2022/06/11 08:59:19;;;;;;;2.50;1.30;;;26.90;92.10;;;;;;7373423;19;20336;-76
2022/06/11 09:02:05;;;;;;;3.60;1.55;;;27.10;93.40;;;;;;7372231;19;20341;-78
2022/06/11 09:05:08;;;;;;;1.60;1.48;;;27.70;93.00;;;;;;7390968;19;20333;-82
2022/06/11 09:08:07;;;;;;;1.80;1.70;;;28.00;90.20;;;;;;7177702;19;2004426;-82
2022/06/11 09:11:12;;;;;;;2.33;1.60;;;28.20;88.20;;;;;;7402923;19;20328;-81
2022/06/11 09:14:15;;;;;;;2.13;1.40;;;28.00;88.30;;;;;;7177200;19;2004258;-80
2022/06/11 09:16:54;;;;;;;1.73;1.63;;;28.50;90.20;;;;;;7174424;19;2004594;-79
2022/06/11 09:19:47;;;;;;;1.38;1.25;;;28.70;87.00;;;;;;7374100;19;20371;-79
2022/06/11 09:22:32;;;;;;;1.85;1.33;;;28.40;82.50;;;;;;7278185;19;2004516;-79
2022/06/11 09:25:17;;;;;;;1.27;1.17;;;28.40;82.30;;;;;;7392245;19;20340;-80
2022/06/11 09:27:50;;;;;;;2.28;1.50;;;28.70;80.50;;;;;;7284814;19;2004160;-79
2022/06/11 09:30:25;;;;;;;1.88;1.35;;;28.60;79.60;;;;;;7381731;19;20341;-80
2022/06/11 09:33:09;;;;;;;1.57;1.47;;;28.40;81.60;;;;;;7384592;19;20329;-80
2022/06/11 09:39:02;;;;;;;1.65;1.50;;;28.50;81.10;;;;;;7373040;19;20860;-84
2022/06/11 09:47:54;;;;;;;3.22;1.80;;;30.10;79.10;;;;;;7387243;19;20343;-83
2022/06/11 09:50:44;;;;;;;2.05;1.73;;;30.30;77.10;;;;;;7273580;19;2004572;-77
2022/06/11 10:00:01;;;;;;;1.53;1.43;;;29.70;79.70;;;;;;7384483;19;20712;-80
2022/06/11 10:08:40;;;;;;;1.33;1.23;;;30.30;71.50;;;;;;7403636;19;20421;-83
2022/06/11 10:11:10;;;;;;;1.40;1.30;;;30.60;72.90;;;;;;7381141;19;20349;-86
2022/06/11 10:14:30;;;;;;;1.80;1.30;;;30.10;71.10;;;;;;7383002;19;20395;-82
2022/06/11 10:17:12;;;;;;;1.40;1.30;;;29.60;69.20;;;;;;7226554;19;2004405;-83
2022/06/11 10:19:54;;;;;;;1.60;1.45;;;30.90;69.70;;;;;;7380293;19;20891;-83
2022/06/11 10:22:50;;;;;;;2.10;1.60;;;30.60;68.90;;;;;;7277227;19;2004375;-83
2022/06/11 10:25:35;;;;;;;1.40;1.30;;;31.40;66.90;;;;;;7286038;19;2004219;-83
2022/06/11 10:28:24;;;;;;;1.80;1.70;;;32.20;67.40;;;;;;7381942;19;20396;-86
2022/06/11 10:31:11;;;;;;;2.60;1.48;;;32.60;63.00;;;;;;7280740;19;2004488;-87
2022/06/11 10:34:01;;;;;;;2.33;1.35;;;32.80;61.50;;;;;;7378242;19;20328;-87
2022/06/11 10:36:30;;;;;;;1.60;1.30;;;33.20;62.10;;;;;;7275174;19;2004523;-86
2022/06/11 10:39:01;;;;;;;1.57;1.20;;;33.00;61.80;;;;;;7372011;19;20759;-81
2022/06/11 10:41:41;;;;;;;3.25;1.48;;;33.20;61.40;;;;;;7368740;19;21104;-79
2022/06/11 10:44:35;;;;;;;1.30;1.20;;;33.60;60.10;;;;;;7367039;19;20926;-79
2022/06/11 10:47:01;;;;;;;2.90;2.28;;;33.80;60.00;;;;;;7266332;19;2004629;-79
2022/06/11 10:49:27;;;;;;;1.70;1.40;;;33.80;56.40;;;;;;7373071;19;20320;-79
2022/06/11 10:52:04;;;;;;;1.50;1.40;;;33.80;55.80;;;;;;7366109;19;20348;-81
2022/06/11 10:54:30;;;;;;;2.58;1.17;;;33.70;58.40;;;;;;7369170;19;20462;-81
2022/06/11 10:57:00;;;;;;;1.40;1.30;;;33.80;57.00;;;;;;7369677;19;20951;-84
2022/06/11 10:59:34;;;;;;;1.25;1.15;;;33.60;57.20;;;;;;7375595;19;20313;-82
2022/06/11 11:02:20;;;;;;;1.38;1.27;;;33.90;57.10;;;;;;7371258;19;20321;-80
2022/06/11 11:05:11;;;;;;;1.73;1.30;;;33.90;53.50;;;;;;7273134;19;2006091;-82
2022/06/11 11:07:41;;;;;;;1.30;1.20;;;33.70;54.50;;;;;;7378590;19;20428;-85
2022/06/11 11:10:37;;;;;;;1.88;1.17;;;34.60;55.90;;;;;;7378931;19;20422;-85
2022/06/11 11:13:12;;;;;;;1.20;1.10;;;35.10;54.50;;;;;;7270947;19;2004022;-82
2022/06/11 11:15:39;;;;;;;1.40;1.30;;;35.10;54.00;;;;;;7377098;19;20867;-84
2022/06/11 11:18:25;;;;;;;1.38;1.27;;;34.30;52.00;;;;;;7380132;19;20354;-83
2022/06/11 11:20:53;;;;;;;1.30;1.23;;;35.00;53.60;;;;;;7274818;19;2004475;-85
2022/06/11 11:23:38;;;;;;;1.40;1.20;;;34.00;51.10;;;;;;7375743;19;20369;-81
2022/06/11 11:26:32;;;;;;;1.20;1.10;;;34.70;52.90;;;;;;7373931;19;20328;-87
2022/06/11 11:29:08;;;;;;;1.13;1.13;;;35.00;52.00;;;;;;7276686;19;2004219;-84
2022/06/11 11:31:43;;;;;;;1.77;1.30;;;34.80;50.40;;;;;;7373319;19;20802;-83
2022/06/11 11:34:16;;;;;;;1.90;1.30;;;35.30;53.50;;;;;;7366986;19;20341;-83
2022/06/11 11:36:42;;;;;;;1.33;1.15;;;34.90;51.30;;;;;;7273755;19;2004438;-83
2022/06/11 11:39:14;;;;;;;1.00;1.00;;;34.70;51.90;;;;;;7378079;19;20336;-82
2022/06/11 11:42:03;;;;;;;1.23;1.17;;;34.10;52.60;;;;;;7358721;19;20412;-83
2022/06/11 11:44:30;;;;;;;1.70;1.30;;;33.40;52.40;;;;;;7275113;19;2004382;-83
2022/06/11 11:47:00;;;;;;;1.13;1.10;;;33.30;53.30;;;;;;7373969;19;20341;-84
2022/06/11 11:49:32;;;;;;;1.63;1.10;;;32.90;52.50;;;;;;7376743;19;20325;-83
2022/06/11 11:52:18;;;;;;;1.13;1.03;;;33.00;53.90;;;;;;7373396;19;20349;-82
2022/06/11 11:54:55;;;;;;;1.58;1.10;;;33.10;54.20;;;;;;7272498;19;2005952;-87
2022/06/11 11:57:20;;;;;;;1.00;1.00;;;32.90;53.90;;;;;;7376180;19;20411;-86
2022/06/11 11:59:52;;;;;;;1.30;1.20;;;32.30;55.40;;;;;;7376836;19;21150;-87
2022/06/11 12:02:35;;;;;;;1.10;1.10;;;32.40;55.30;;;;;;7373084;19;20351;-83
2022/06/11 12:05:08;;;;;;;1.60;1.10;;;32.50;56.30;;;;;;7378499;19;20312;-83
2022/06/11 12:07:40;;;;;;;1.30;1.20;;;32.60;54.60;;;;;;7376229;19;20324;-83
2022/06/11 12:10:18;;;;;;;1.48;1.20;;;32.10;55.00;;;;;;7377658;19;20341;-85
2022/06/11 12:12:49;;;;;;;2.20;1.08;;;31.70;54.60;;;;;;7273000;19;2004196;-83
2022/06/11 12:15:19;;;;;;;1.20;1.10;;;32.00;54.80;;;;;;7373578;19;21037;-84
2022/06/11 12:18:05;;;;;;;2.97;1.30;;;31.70;55.50;;;;;;7377508;19;20319;-84
2022/06/11 12:20:40;;;;;;;1.85;1.20;;;31.90;55.70;;;;;;7375911;19;20738;-84
2022/06/11 12:23:36;;;;;;;1.35;1.25;;;31.80;56.30;;;;;;7375470;19;20356;-84
2022/06/11 12:26:04;;;;;;;1.20;1.10;;;32.00;56.60;;;;;;7271902;19;2004269;-85
2022/06/11 12:28:37;;;;;;;1.30;1.20;;;32.10;57.40;;;;;;7374514;19;20336;-84
2022/06/11 12:31:03;;;;;;;1.65;1.05;;;32.10;56.20;;;;;;7370226;19;20337;-84
2022/06/11 12:33:29;;;;;;;1.20;1.10;;;32.00;55.00;;;;;;7373241;19;20392;-83
2022/06/11 12:36:10;;;;;;;1.08;1.08;;;31.90;54.60;;;;;;7370911;19;20945;-84
2022/06/11 12:38:49;;;;;;;1.10;1.00;;;31.60;53.30;;;;;;7373155;19;20873;-82
2022/06/11 12:41:37;;;;;;;0.93;0.93;;;31.80;56.00;;;;;;7243455;19;2004314;-85
2022/06/11 12:44:18;;;;;;;1.60;1.20;;;32.60;55.30;;;;;;7370478;19;20320;-86
2022/06/11 12:46:46;;;;;;;0.93;0.93;;;32.70;52.40;;;;;;7269934;19;2004386;-86
2022/06/11 12:49:30;;;;;;;1.48;1.17;;;33.40;50.10;;;;;;7375508;19;20957;-86
2022/06/11 12:52:33;;;;;;;1.20;1.10;;;33.20;51.30;;;;;;7372168;19;20491;-85
2022/06/11 12:55:14;;;;;;;1.10;1.10;;;33.50;50.90;;;;;;7272818;19;2004547;-87
2022/06/11 12:57:48;;;;;;;1.88;1.25;;;33.60;49.60;;;;;;7373899;19;21069;-84
2022/06/11 13:00:44;;;;;;;1.80;1.20;;;34.00;51.90;;;;;;7274048;19;2004634;-85
2022/06/11 13:03:35;;;;;;;1.00;1.00;;;34.10;50.00;;;;;;7371877;19;20798;-83
2022/06/11 13:06:07;;;;;;;1.20;1.10;;;35.20;51.20;;;;;;7271319;19;2019080;-87
2022/06/11 13:08:45;;;;;;;1.00;1.00;;;35.30;50.00;;;;;;7374354;19;20367;-89
2022/06/11 13:11:19;;;;;;;1.30;1.20;;;35.20;51.80;;;;;;7273319;19;2004279;-85
2022/06/11 13:13:51;;;;;;;2.47;1.10;;;35.40;49.70;;;;;;7383026;19;20352;-87
2022/06/11 13:16:54;;;;;;;2.33;1.02;;;35.50;49.20;;;;;;7381976;19;20745;-87
2022/06/11 13:19:48;;;;;;;1.00;1.00;;;35.00;46.30;;;;;;7278943;19;2004369;-87
2022/06/11 13:22:26;;;;;;;1.10;1.10;;;35.10;48.50;;;;;;7278997;19;2004359;-88
2022/06/11 13:25:24;;;;;;;1.58;1.30;;;34.70;50.60;;;;;;7381632;19;20368;-88
2022/06/11 13:28:26;;;;;;;2.80;2.30;;;34.80;50.80;;;;;;7280368;19;2019118;-87
2022/06/11 13:30:58;;;;;;;0.80;0.80;;;35.30;49.60;;;;;;7278082;19;2005003;-90
2022/06/11 13:33:39;;;;;;;0.90;0.90;;;33.00;47.10;;;;;;7379283;19;20474;-89
2022/06/11 13:36:10;;;;;;;1.10;1.00;;;32.30;49.70;;;;;;7376277;19;20395;-83
2022/06/11 13:38:48;;;;;;;1.40;1.10;;;31.80;50.40;;;;;;7380162;19;20668;-84
2022/06/11 13:41:39;;;;;;;2.22;1.17;;;32.00;53.20;;;;;;7274765;19;2004273;-84